sensor_id;sensor_type;location;lat;lon;timestamp;pressure;altitude;pressure_sealevel;temperature;humidity
52949;BME280;38812;50.942;3.644;2022-12-05T00:00:45;101721.31;;;1.60;100.00
52949;BME280;38812;50.942;3.644;2022-12-05T00:03:10;101730.19;;;1.68;100.00
52949;BME280;38812;50.942;3.644;2022-12-05T00:05:39;101719.84;;;1.68;100.00
52949;BME280;38812;50.942;3.644;2022-12-05T00:08:04;101731.94;;;1.69;100.00
52949;BME280;38812;50.942;3.644;2022-12-05T00:10:30;101735.53;;;1.73;100.00
52949;BME280;38812;50.942;3.644;2022-12-05T00:12:55;101732.00;;;1.71;100.00
52949;BME280;38812;50.942;3.644;2022-12-05T00:15:20;101725.09;;;1.71;100.00
52949;BME280;38812;50.942;3.644;2022-12-05T00:17:46;101724.19;;;1.69;100.00
52949;BME280;38812;50.942;3.644;2022-12-05T00:20:11;101733.72;;;1.70;100.00
52949;BME280;38812;50.942;3.644;2022-12-05T00:22:37;101723.16;;;1.64;100.00
52949;BME280;38812;50.942;3.644;2022-12-05T00:25:07;101718.16;;;1.70;100.00
52949;BME280;38812;50.942;3.644;2022-12-05T00:27:32;101724.22;;;1.71;100.00
52949;BME280;38812;50.942;3.644;2022-12-05T00:29:58;101717.19;;;1.67;100.00
52949;BME280;38812;50.942;3.644;2022-12-05T00:32:23;101720.72;;;1.69;100.00
52949;BME280;38812;50.942;3.644;2022-12-05T00:34:49;101725.09;;;1.71;100.00
52949;BME280;38812;50.942;3.644;2022-12-05T00:37:14;101721.69;;;1.73;100.00
52949;BME280;38812;50.942;3.644;2022-12-05T00:39:39;101715.63;;;1.73;100.00
52949;BME280;38812;50.942;3.644;2022-12-05T00:42:05;101726.09;;;1.77;100.00
52949;BME280;38812;50.942;3.644;2022-12-05T00:44:30;101702.50;;;1.66;100.00
52949;BME280;38812;50.942;3.644;2022-12-05T00:46:55;101727.75;;;1.75;100.00
52949;BME280;38812;50.942;3.644;2022-12-05T00:49:21;101725.00;;;1.68;100.00
52949;BME280;38812;50.942;3.644;2022-12-05T00:51:46;101719.88;;;1.70;100.00
52949;BME280;38812;50.942;3.644;2022-12-05T00:54:14;101722.50;;;1.71;100.00
52949;BME280;38812;50.942;3.644;2022-12-05T00:56:40;101717.19;;;1.67;100.00
52949;BME280;38812;50.942;3.644;2022-12-05T00:59:05;101730.34;;;1.75;100.00
52949;BME280;38812;50.942;3.644;2022-12-05T01:01:35;101747.53;;;1.71;100.00
52949;BME280;38812;50.942;3.644;2022-12-05T01:04:04;101741.59;;;1.75;100.00
52949;BME280;38812;50.942;3.644;2022-12-05T01:06:30;101750.91;;;1.68;100.00
52949;BME280;38812;50.942;3.644;2022-12-05T01:08:56;101738.06;;;1.71;100.00
52949;BME280;38812;50.942;3.644;2022-12-05T01:11:23;101731.84;;;1.66;100.00
52949;BME280;38812;50.942;3.644;2022-12-05T01:13:49;101740.56;;;1.68;100.00
52949;BME280;38812;50.942;3.644;2022-12-05T01:16:21;101732.84;;;1.70;100.00
52949;BME280;38812;50.942;3.644;2022-12-05T01:18:47;101726.94;;;1.76;100.00
52949;BME280;38812;50.942;3.644;2022-12-05T01:21:13;101733.63;;;1.67;100.00
52949;BME280;38812;50.942;3.644;2022-12-05T01:23:38;101750.19;;;1.74;100.00
52949;BME280;38812;50.942;3.644;2022-12-05T01:26:06;101740.72;;;1.75;100.00
52949;BME280;38812;50.942;3.644;2022-12-05T01:28:32;101733.72;;;1.70;100.00
52949;BME280;38812;50.942;3.644;2022-12-05T01:31:04;101727.56;;;1.67;100.00
52949;BME280;38812;50.942;3.644;2022-12-05T01:33:31;101737.25;;;1.74;100.00
52949;BME280;38812;50.942;3.644;2022-12-05T01:35:56;101735.38;;;1.68;100.00
52949;BME280;38812;50.942;3.644;2022-12-05T01:38:23;101743.88;;;1.64;100.00
52949;BME280;38812;50.942;3.644;2022-12-05T01:40:49;101744.81;;;1.66;100.00
52949;BME280;38812;50.942;3.644;2022-12-05T01:43:16;101726.31;;;1.54;100.00
52949;BME280;38812;50.942;3.644;2022-12-05T01:45:44;101727.41;;;1.62;100.00
52949;BME280;38812;50.942;3.644;2022-12-05T01:48:15;101731.66;;;1.60;100.00
52949;BME280;38812;50.942;3.644;2022-12-05T01:50:43;101718.44;;;1.50;100.00
52949;BME280;38812;50.942;3.644;2022-12-05T01:53:08;101747.91;;;1.55;100.00
52949;BME280;38812;50.942;3.644;2022-12-05T01:55:35;101726.94;;;1.46;100.00
52949;BME280;38812;50.942;3.644;2022-12-05T01:58:01;101734.00;;;1.51;100.00
52949;BME280;38812;50.942;3.644;2022-12-05T02:00:27;101726.94;;;1.46;100.00
52949;BME280;38812;50.942;3.644;2022-12-05T02:03:06;101720.88;;;1.45;100.00
52949;BME280;38812;50.942;3.644;2022-12-05T02:05:34;101727.72;;;1.43;100.00
52949;BME280;38812;50.942;3.644;2022-12-05T02:08:02;101727.81;;;1.46;100.00
52949;BME280;38812;50.942;3.644;2022-12-05T02:10:34;101733.09;;;1.49;100.00
52949;BME280;38812;50.942;3.644;2022-12-05T02:13:49;101727.72;;;1.43;100.00
52949;BME280;38812;50.942;3.644;2022-12-05T02:18:47;101724.97;;;1.38;100.00
52949;BME280;38812;50.942;3.644;2022-12-05T02:24:26;101724.09;;;1.38;100.00
52949;BME280;38812;50.942;3.644;2022-12-05T02:32:46;101701.22;;;1.23;100.00
52949;BME280;38812;50.942;3.644;2022-12-05T02:40:25;101699.56;;;1.25;100.00
52949;BME280;38812;50.942;3.644;2022-12-05T02:43:11;101700.28;;;1.21;100.00
52949;BME280;38812;50.942;3.644;2022-12-05T02:45:38;101690.72;;;1.19;100.00
52949;BME280;38812;50.942;3.644;2022-12-05T02:48:05;101693.31;;;1.19;100.00
52949;BME280;38812;50.942;3.644;2022-12-05T02:50:33;101699.31;;;1.18;100.00
52949;BME280;38812;50.942;3.644;2022-12-05T02:53:08;101685.44;;;1.16;100.00
52949;BME280;38812;50.942;3.644;2022-12-05T02:55:35;101691.41;;;1.13;100.00
52949;BME280;38812;50.942;3.644;2022-12-05T02:58:06;101689.84;;;1.18;100.00
52949;BME280;38812;50.942;3.644;2022-12-05T03:00:34;101687.31;;;1.20;100.00
52949;BME280;38812;50.942;3.644;2022-12-05T03:03:11;101691.59;;;1.19;100.00
52949;BME280;38812;50.942;3.644;2022-12-05T03:05:50;101695.81;;;1.16;100.00
52949;BME280;38812;50.942;3.644;2022-12-05T03:08:23;101687.94;;;1.13;100.00
52949;BME280;38812;50.942;3.644;2022-12-05T03:10:50;101694.91;;;1.15;100.00
52949;BME280;38812;50.942;3.644;2022-12-05T03:13:59;101680.38;;;1.19;100.00
52949;BME280;38812;50.942;3.644;2022-12-05T03:16:25;101683.78;;;1.18;100.00
52949;BME280;38812;50.942;3.644;2022-12-05T03:18:56;101683.88;;;1.21;100.00
52949;BME280;38812;50.942;3.644;2022-12-05T03:21:32;101685.00;;;1.29;100.00
52949;BME280;38812;50.942;3.644;2022-12-05T03:24:02;101678.13;;;1.31;100.00
52949;BME280;38812;50.942;3.644;2022-12-05T03:29:41;101674.56;;;1.26;100.00
52949;BME280;38812;50.942;3.644;2022-12-05T03:32:42;101672.84;;;1.26;100.00
52949;BME280;38812;50.942;3.644;2022-12-05T03:35:21;101671.25;;;1.31;100.00
52949;BME280;38812;50.942;3.644;2022-12-05T03:38:07;101674.66;;;1.30;100.00
52949;BME280;38812;50.942;3.644;2022-12-05T03:40:59;101666.84;;;1.27;100.00
52949;BME280;38812;50.942;3.644;2022-12-05T03:46:04;101669.50;;;1.30;100.00
52949;BME280;38812;50.942;3.644;2022-12-05T03:48:32;101678.22;;;1.34;100.00
52949;BME280;38812;50.942;3.644;2022-12-05T03:50:59;101665.19;;;1.31;100.00
52949;BME280;38812;50.942;3.644;2022-12-05T03:53:40;101662.78;;;1.37;100.00
52949;BME280;38812;50.942;3.644;2022-12-05T03:56:13;101666.00;;;1.28;100.00
52949;BME280;38812;50.942;3.644;2022-12-05T03:58:51;101667.81;;;1.32;100.00
52949;BME280;38812;50.942;3.644;2022-12-05T04:01:21;101674.03;;;1.37;100.00
52949;BME280;38812;50.942;3.644;2022-12-05T04:03:54;101668.66;;;1.30;100.00
52949;BME280;38812;50.942;3.644;2022-12-05T04:06:32;101656.59;;;1.32;100.00
52949;BME280;38812;50.942;3.644;2022-12-05T04:09:05;101664.41;;;1.33;100.00
52949;BME280;38812;50.942;3.644;2022-12-05T04:11:34;101671.28;;;1.33;100.00
52949;BME280;38812;50.942;3.644;2022-12-05T04:14:08;101654.84;;;1.31;100.00
52949;BME280;38812;50.942;3.644;2022-12-05T04:16:57;101665.38;;;1.37;100.00
52949;BME280;38812;50.942;3.644;2022-12-05T04:19:41;101655.06;;;1.38;100.00
52949;BME280;38812;50.942;3.644;2022-12-05T04:22:47;101649.94;;;1.40;100.00
52949;BME280;38812;50.942;3.644;2022-12-05T04:25:14;101653.34;;;1.39;100.00
52949;BME280;38812;50.942;3.644;2022-12-05T04:30:42;101653.28;;;1.36;100.00
52949;BME280;38812;50.942;3.644;2022-12-05T04:33:16;101658.53;;;1.39;100.00
52949;BME280;38812;50.942;3.644;2022-12-05T04:35:58;101655.13;;;1.40;100.00
52949;BME280;38812;50.942;3.644;2022-12-05T04:38:30;101653.16;;;1.33;100.00
52949;BME280;38812;50.942;3.644;2022-12-05T04:41:01;101656.81;;;1.40;100.00
52949;BME280;38812;50.942;3.644;2022-12-05T04:43:29;101653.34;;;1.39;100.00
52949;BME280;38812;50.942;3.644;2022-12-05T04:45:58;101666.41;;;1.42;100.00
52949;BME280;38812;50.942;3.644;2022-12-05T04:48:26;101650.78;;;1.39;100.00
52949;BME280;38812;50.942;3.644;2022-12-05T04:50:53;101657.84;;;1.45;100.00
52949;BME280;38812;50.942;3.644;2022-12-05T04:53:21;101657.75;;;1.42;100.00
52949;BME280;38812;50.942;3.644;2022-12-05T04:55:49;101670.94;;;1.49;100.00
52949;BME280;38812;50.942;3.644;2022-12-05T05:00:58;101684.72;;;1.48;100.00
52949;BME280;38812;50.942;3.644;2022-12-05T05:03:46;101669.09;;;1.45;100.00
52949;BME280;38812;50.942;3.644;2022-12-05T05:06:14;101671.81;;;1.50;100.00
52949;BME280;38812;50.942;3.644;2022-12-05T05:08:54;101678.06;;;1.58;100.00
52949;BME280;38812;50.942;3.644;2022-12-05T05:11:26;101703.03;;;1.56;100.00
52949;BME280;38812;50.942;3.644;2022-12-05T05:13:52;101706.47;;;1.55;100.00
52949;BME280;38812;50.942;3.644;2022-12-05T05:16:25;101679.63;;;1.51;100.00
52949;BME280;38812;50.942;3.644;2022-12-05T05:18:51;101690.19;;;1.59;100.00
52949;BME280;38812;50.942;3.644;2022-12-05T05:21:31;101679.53;;;1.48;100.00
52949;BME280;38812;50.942;3.644;2022-12-05T05:23:58;101682.97;;;1.47;100.00
52949;BME280;38812;50.942;3.644;2022-12-05T05:26:24;101690.81;;;1.50;100.00
52949;BME280;38812;50.942;3.644;2022-12-05T05:28:50;101692.47;;;1.48;100.00
52949;BME280;38812;50.942;3.644;2022-12-05T05:31:17;101699.38;;;1.48;100.00
52949;BME280;38812;50.942;3.644;2022-12-05T05:33:43;101701.03;;;1.46;100.00
52949;BME280;38812;50.942;3.644;2022-12-05T05:36:11;101700.19;;;1.47;100.00
52949;BME280;38812;50.942;3.644;2022-12-05T05:38:38;101700.16;;;1.45;100.00
52949;BME280;38812;50.942;3.644;2022-12-05T05:41:04;101704.41;;;1.43;100.00
52949;BME280;38812;50.942;3.644;2022-12-05T05:43:30;101722.53;;;1.43;100.00
52949;BME280;38812;50.942;3.644;2022-12-05T05:45:56;101719.78;;;1.38;100.00
52949;BME280;38812;50.942;3.644;2022-12-05T05:48:22;101710.31;;;1.39;100.00
52949;BME280;38812;50.942;3.644;2022-12-05T05:50:47;101692.78;;;1.29;100.00
52949;BME280;38812;50.942;3.644;2022-12-05T05:53:13;101702.47;;;1.36;100.00
52949;BME280;38812;50.942;3.644;2022-12-05T05:55:41;101706.72;;;1.34;100.00
52949;BME280;38812;50.942;3.644;2022-12-05T05:58:07;101697.94;;;1.29;100.00
52949;BME280;38812;50.942;3.644;2022-12-05T06:00:33;101710.06;;;1.30;100.00
52949;BME280;38812;50.942;3.644;2022-12-05T06:02:58;101698.78;;;1.28;100.00
52949;BME280;38812;50.942;3.644;2022-12-05T06:05:23;101702.34;;;1.33;100.00
52949;BME280;38812;50.942;3.644;2022-12-05T06:07:51;101705.78;;;1.32;100.00
52949;BME280;38812;50.942;3.644;2022-12-05T06:10:17;101710.06;;;1.30;100.00
52949;BME280;38812;50.942;3.644;2022-12-05T06:12:42;101714.53;;;1.35;100.00
52949;BME280;38812;50.942;3.644;2022-12-05T06:15:08;101706.81;;;1.37;100.00
52949;BME280;38812;50.942;3.644;2022-12-05T06:17:33;101705.94;;;1.36;100.00
52949;BME280;38812;50.942;3.644;2022-12-05T06:19:58;101714.66;;;1.40;100.00
52949;BME280;38812;50.942;3.644;2022-12-05T06:22:24;101707.81;;;1.42;100.00
52949;BME280;38812;50.942;3.644;2022-12-05T06:24:49;101723.41;;;1.44;100.00
52949;BME280;38812;50.942;3.644;2022-12-05T06:27:14;101719.22;;;1.47;100.00
52949;BME280;38812;50.942;3.644;2022-12-05T06:29:40;101712.19;;;1.43;100.00
52949;BME280;38812;50.942;3.644;2022-12-05T06:32:05;101715.69;;;1.45;100.00
52949;BME280;38812;50.942;3.644;2022-12-05T06:34:31;101710.50;;;1.45;100.00
52949;BME280;38812;50.942;3.644;2022-12-05T06:36:57;101716.63;;;1.47;100.00
52949;BME280;38812;50.942;3.644;2022-12-05T06:39:23;101726.84;;;1.43;100.00
52949;BME280;38812;50.942;3.644;2022-12-05T06:41:49;101714.84;;;1.46;100.00
52949;BME280;38812;50.942;3.644;2022-12-05T06:44:14;101720.19;;;1.52;100.00
52949;BME280;38812;50.942;3.644;2022-12-05T06:46:40;101708.94;;;1.50;100.00
52949;BME280;38812;50.942;3.644;2022-12-05T06:49:05;101719.41;;;1.55;100.00
52949;BME280;38812;50.942;3.644;2022-12-05T06:51:30;101709.81;;;1.51;100.00
52949;BME280;38812;50.942;3.644;2022-12-05T06:53:56;101721.22;;;1.57;100.00
52949;BME280;38812;50.942;3.644;2022-12-05T06:56:21;101724.72;;;1.59;100.00
52949;BME280;38812;50.942;3.644;2022-12-05T06:58:48;101721.22;;;1.57;100.00
52949;BME280;38812;50.942;3.644;2022-12-05T07:01:16;101725.56;;;1.58;100.00
52949;BME280;38812;50.942;3.644;2022-12-05T07:04:01;101720.38;;;1.58;100.00
52949;BME280;38812;50.942;3.644;2022-12-05T07:06:27;101729.22;;;1.65;100.00
52949;BME280;38812;50.942;3.644;2022-12-05T07:08:53;101733.63;;;1.67;100.00
52949;BME280;38812;50.942;3.644;2022-12-05T07:11:19;101732.78;;;1.68;100.00
52949;BME280;38812;50.942;3.644;2022-12-05T07:13:44;101715.25;;;1.60;100.00
52949;BME280;38812;50.942;3.644;2022-12-05T07:16:10;101737.97;;;1.68;100.00
52949;BME280;38812;50.942;3.644;2022-12-05T07:18:35;101737.91;;;1.67;100.00
52949;BME280;38812;50.942;3.644;2022-12-05T07:21:04;101752.78;;;1.73;100.00
52949;BME280;38812;50.942;3.644;2022-12-05T07:23:30;101738.13;;;1.75;100.00
52949;BME280;38812;50.942;3.644;2022-12-05T07:25:55;101741.59;;;1.75;100.00
52949;BME280;38812;50.942;3.644;2022-12-05T07:28:22;101744.22;;;1.77;100.00
52949;BME280;38812;50.942;3.644;2022-12-05T07:30:47;101739.03;;;1.77;100.00
52949;BME280;38812;50.942;3.644;2022-12-05T07:33:13;101737.38;;;1.79;100.00
52949;BME280;38812;50.942;3.644;2022-12-05T07:35:38;101748.66;;;1.81;100.00
52949;BME280;38812;50.942;3.644;2022-12-05T07:38:04;101739.22;;;1.83;100.00
52949;BME280;38812;50.942;3.644;2022-12-05T07:40:29;101740.09;;;1.83;100.00
52949;BME280;38812;50.942;3.644;2022-12-05T07:42:55;101747.94;;;1.85;100.00
52949;BME280;38812;50.942;3.644;2022-12-05T07:45:20;101753.28;;;1.91;100.00
52949;BME280;38812;50.942;3.644;2022-12-05T07:47:46;101749.78;;;1.89;100.00
52949;BME280;38812;50.942;3.644;2022-12-05T07:50:12;101749.00;;;1.91;100.00
52949;BME280;38812;50.942;3.644;2022-12-05T07:52:38;101753.38;;;1.94;100.00
52949;BME280;38812;50.942;3.644;2022-12-05T07:55:04;101758.63;;;1.97;100.00
52949;BME280;38812;50.942;3.644;2022-12-05T07:57:30;101763.75;;;1.94;100.00
52949;BME280;38812;50.942;3.644;2022-12-05T07:59:55;101769.88;;;1.97;100.00
52949;BME280;38812;50.942;3.644;2022-12-05T08:02:21;101765.66;;;2.01;100.00
52949;BME280;38812;50.942;3.644;2022-12-05T08:04:47;101771.69;;;2.00;100.00
52949;BME280;38812;50.942;3.644;2022-12-05T08:07:12;101767.25;;;1.96;100.00
52949;BME280;38812;50.942;3.644;2022-12-05T08:09:37;101790.78;;;2.03;100.00
52949;BME280;38812;50.942;3.644;2022-12-05T08:12:03;101769.09;;;2.00;100.00
52949;BME280;38812;50.942;3.644;2022-12-05T08:14:28;101768.31;;;2.02;100.00
52949;BME280;38812;50.942;3.644;2022-12-05T08:16:54;101771.72;;;2.01;100.00
52949;BME280;38812;50.942;3.644;2022-12-05T08:19:19;101782.22;;;2.06;100.00
52949;BME280;38812;50.942;3.644;2022-12-05T08:21:45;101795.38;;;2.12;100.00
52949;BME280;38812;50.942;3.644;2022-12-05T08:24:11;101788.25;;;2.05;100.00
52949;BME280;38812;50.942;3.644;2022-12-05T08:26:37;101792.50;;;2.03;100.00
52949;BME280;38812;50.942;3.644;2022-12-05T08:29:06;101792.78;;;2.12;100.00
52949;BME280;38812;50.942;3.644;2022-12-05T08:31:33;101790.09;;;2.09;100.00
52949;BME280;38812;50.942;3.644;2022-12-05T08:33:59;101798.00;;;2.14;100.00
52949;BME280;38812;50.942;3.644;2022-12-05T08:36:27;101803.09;;;2.11;100.00
52949;BME280;38812;50.942;3.644;2022-12-05T08:38:57;101777.88;;;2.05;100.00
52949;BME280;38812;50.942;3.644;2022-12-05T08:41:22;101805.09;;;2.21;100.00
52949;BME280;38812;50.942;3.644;2022-12-05T08:43:53;101821.53;;;2.21;100.00
52949;BME280;38812;50.942;3.644;2022-12-05T08:46:19;101805.06;;;2.19;100.00
52949;BME280;38812;50.942;3.644;2022-12-05T08:48:44;101809.41;;;2.20;100.00
52949;BME280;38812;50.942;3.644;2022-12-05T08:51:10;101823.38;;;2.25;100.00
52949;BME280;38812;50.942;3.644;2022-12-05T08:53:37;101812.97;;;2.24;100.00
52949;BME280;38812;50.942;3.644;2022-12-05T08:56:05;101824.44;;;2.32;100.00
52949;BME280;38812;50.942;3.644;2022-12-05T08:58:31;101813.28;;;2.34;100.00
52949;BME280;38812;50.942;3.644;2022-12-05T09:01:14;101810.66;;;2.33;100.00
52949;BME280;38812;50.942;3.644;2022-12-05T09:03:41;101815.09;;;2.38;100.00
52949;BME280;38812;50.942;3.644;2022-12-05T09:06:12;101815.03;;;2.35;100.00
52949;BME280;38812;50.942;3.644;2022-12-05T09:08:38;101816.88;;;2.39;100.00
52949;BME280;38812;50.942;3.644;2022-12-05T09:11:06;101810.00;;;2.41;100.00
52949;BME280;38812;50.942;3.644;2022-12-05T09:13:31;101843.06;;;2.49;100.00
52949;BME280;38812;50.942;3.644;2022-12-05T09:15:56;101801.53;;;2.47;100.00
52949;BME280;38812;50.942;3.644;2022-12-05T09:18:22;101812.94;;;2.54;100.00
52949;BME280;38812;50.942;3.644;2022-12-05T09:20:47;101799.97;;;2.54;100.00
52949;BME280;38812;50.942;3.644;2022-12-05T09:23:13;101815.72;;;2.61;100.00
52949;BME280;38812;50.942;3.644;2022-12-05T09:25:38;101818.44;;;2.66;100.00
52949;BME280;38812;50.942;3.644;2022-12-05T09:28:03;101820.16;;;2.65;100.00
52949;BME280;38812;50.942;3.644;2022-12-05T09:30:29;101808.91;;;2.65;100.00
52949;BME280;38812;50.942;3.644;2022-12-05T09:32:54;101824.53;;;2.66;100.00
52949;BME280;38812;50.942;3.644;2022-12-05T09:35:19;101826.41;;;2.72;100.00
52949;BME280;38812;50.942;3.644;2022-12-05T09:37:44;101823.84;;;2.73;100.00
52949;BME280;38812;50.942;3.644;2022-12-05T09:40:19;101831.75;;;2.78;100.00
52949;BME280;38812;50.942;3.644;2022-12-05T09:43:06;101841.34;;;2.81;100.00
52949;BME280;38812;50.942;3.644;2022-12-05T09:45:38;101829.13;;;2.77;100.00
52949;BME280;38812;50.942;3.644;2022-12-05T09:48:14;101827.41;;;2.77;100.00
52949;BME280;38812;50.942;3.644;2022-12-05T09:50:45;101836.22;;;2.84;100.00
52949;BME280;38812;50.942;3.644;2022-12-05T09:53:23;101836.06;;;2.78;100.00
52949;BME280;38812;50.942;3.644;2022-12-05T09:58:46;101846.81;;;2.91;100.00
52949;BME280;38812;50.942;3.644;2022-12-05T10:06:37;101839.84;;;2.90;100.00
52949;BME280;38812;50.942;3.644;2022-12-05T10:09:13;101838.13;;;2.91;100.00
52949;BME280;38812;50.942;3.644;2022-12-05T10:11:45;101845.25;;;2.98;100.00
52949;BME280;38812;50.942;3.644;2022-12-05T10:17:19;101854.09;;;3.06;100.00
52949;BME280;38812;50.942;3.644;2022-12-05T10:19:48;101860.25;;;3.09;100.00
52949;BME280;38812;50.942;3.644;2022-12-05T10:22:21;101837.28;;;3.25;100.00
52949;BME280;38812;50.942;3.644;2022-12-05T10:24:54;101832.97;;;3.27;100.00
52949;BME280;38812;50.942;3.644;2022-12-05T10:27:28;101841.84;;;3.35;100.00
52949;BME280;38812;50.942;3.644;2022-12-05T10:30:04;101830.44;;;3.28;100.00
52949;BME280;38812;50.942;3.644;2022-12-05T10:32:36;101837.41;;;3.31;100.00
52949;BME280;38812;50.942;3.644;2022-12-05T10:37:45;101837.63;;;3.38;100.00
52949;BME280;38812;50.942;3.644;2022-12-05T10:40:12;101840.16;;;3.37;100.00
52949;BME280;38812;50.942;3.644;2022-12-05T10:42:38;101838.50;;;3.39;100.00
52949;BME280;38812;50.942;3.644;2022-12-05T10:45:07;101852.59;;;3.50;100.00
52949;BME280;38812;50.942;3.644;2022-12-05T10:47:33;101846.44;;;3.47;100.00
52949;BME280;38812;50.942;3.644;2022-12-05T10:50:03;101847.28;;;3.44;100.00
52949;BME280;38812;50.942;3.644;2022-12-05T10:52:30;101856.84;;;3.47;100.00
52949;BME280;38812;50.942;3.644;2022-12-05T10:55:05;101852.69;;;3.53;100.00
52949;BME280;38812;50.942;3.644;2022-12-05T10:57:31;101876.47;;;3.71;100.00
52949;BME280;38812;50.942;3.644;2022-12-05T10:59:57;101875.53;;;3.66;100.00
52949;BME280;38812;50.942;3.644;2022-12-05T11:02:28;101873.97;;;3.74;100.00
52949;BME280;38812;50.942;3.644;2022-12-05T11:04:55;101882.72;;;3.78;100.00
52949;BME280;38812;50.942;3.644;2022-12-05T11:10:32;101885.16;;;3.72;100.00
52949;BME280;38812;50.942;3.644;2022-12-05T11:12:58;101890.44;;;3.75;100.00
52949;BME280;38812;50.942;3.644;2022-12-05T11:15:29;101892.31;;;3.81;100.00
52949;BME280;38812;50.942;3.644;2022-12-05T11:17:58;101883.75;;;3.85;100.00
52949;BME280;38812;50.942;3.644;2022-12-05T11:20:41;101905.53;;;3.90;100.00
52949;BME280;38812;50.942;3.644;2022-12-05T11:23:20;101887.25;;;3.87;100.00
52949;BME280;38812;50.942;3.644;2022-12-05T11:25:47;101896.81;;;3.88;100.00
52949;BME280;38812;50.942;3.644;2022-12-05T11:31:03;101905.53;;;3.90;100.00
52949;BME280;38812;50.942;3.644;2022-12-05T11:33:33;101900.25;;;3.87;100.00
52949;BME280;38812;50.942;3.644;2022-12-05T11:36:21;101905.41;;;3.85;100.00
52949;BME280;38812;50.942;3.644;2022-12-05T11:38:47;101913.94;;;3.79;100.00
52949;BME280;38812;50.942;3.644;2022-12-05T11:44:54;101907.31;;;3.94;100.00
52949;BME280;38812;50.942;3.644;2022-12-05T11:50:27;101899.63;;;3.98;100.00
52949;BME280;38812;50.942;3.644;2022-12-05T11:56:09;101890.34;;;4.08;100.00
52949;BME280;38812;50.942;3.644;2022-12-05T12:06:32;101895.16;;;3.93;100.00
52949;BME280;38812;50.942;3.644;2022-12-05T12:09:33;101903.78;;;3.89;100.00
52949;BME280;38812;50.942;3.644;2022-12-05T12:12:27;101895.09;;;3.88;100.00
52949;BME280;38812;50.942;3.644;2022-12-05T12:15:06;101890.63;;;3.83;100.00
52949;BME280;38812;50.942;3.644;2022-12-05T12:17:48;101896.56;;;3.77;100.00
52949;BME280;38812;50.942;3.644;2022-12-05T12:22:57;101901.03;;;3.83;100.00
52949;BME280;38812;50.942;3.644;2022-12-05T12:28:42;101883.44;;;3.72;100.00
52949;BME280;38812;50.942;3.644;2022-12-05T12:31:34;101895.94;;;3.87;100.00
52949;BME280;38812;50.942;3.644;2022-12-05T12:34:17;101906.91;;;3.75;100.00
52949;BME280;38812;50.942;3.644;2022-12-05T12:40:00;101898.41;;;3.83;100.00
52949;BME280;38812;50.942;3.644;2022-12-05T12:45:38;101892.03;;;3.70;100.00
52949;BME280;38812;50.942;3.644;2022-12-05T12:48:17;101892.28;;;3.79;100.00
52949;BME280;38812;50.942;3.644;2022-12-05T12:50:50;101899.25;;;3.82;100.00
52949;BME280;38812;50.942;3.644;2022-12-05T12:53:34;101888.63;;;3.72;100.00
52949;BME280;38812;50.942;3.644;2022-12-05T13:01:21;101875.66;;;3.72;100.00
52949;BME280;38812;50.942;3.644;2022-12-05T13:03:53;101874.75;;;3.72;100.00
52949;BME280;38812;50.942;3.644;2022-12-05T13:06:44;101866.16;;;3.74;100.00
52949;BME280;38812;50.942;3.644;2022-12-05T13:09:22;101855.16;;;3.85;100.00
52949;BME280;38812;50.942;3.644;2022-12-05T13:11:52;101859.41;;;3.81;100.00
52949;BME280;38812;50.942;3.644;2022-12-05T13:14:22;101864.53;;;3.78;100.00
52949;BME280;38812;50.942;3.644;2022-12-05T13:16:51;101868.91;;;3.81;100.00
52949;BME280;38812;50.942;3.644;2022-12-05T13:19:37;101860.19;;;3.78;100.00
52949;BME280;38812;50.942;3.644;2022-12-05T13:22:05;101862.19;;;3.89;100.00
52949;BME280;38812;50.942;3.644;2022-12-05T13:24:33;101848.94;;;3.78;100.00
52949;BME280;38812;50.942;3.644;2022-12-05T13:27:07;101870.75;;;3.85;100.00
52949;BME280;38812;50.942;3.644;2022-12-05T13:29:38;101850.66;;;3.77;100.00
52949;BME280;38812;50.942;3.644;2022-12-05T13:32:05;101871.47;;;3.79;100.00
52949;BME280;38812;50.942;3.644;2022-12-05T13:34:47;101876.06;;;3.91;100.00
52949;BME280;38812;50.942;3.644;2022-12-05T13:37:19;101863.97;;;3.93;100.00
52949;BME280;38812;50.942;3.644;2022-12-05T13:40:06;101858.91;;;3.99;100.00
52949;BME280;38812;50.942;3.644;2022-12-05T13:43:02;101874.59;;;4.02;100.00
52949;BME280;38812;50.942;3.644;2022-12-05T13:45:29;101873.09;;;4.13;100.00
52949;BME280;38812;50.942;3.644;2022-12-05T13:50:35;101894.50;;;4.01;100.00
52949;BME280;38812;50.942;3.644;2022-12-05T13:53:26;101873.00;;;4.08;100.00
52949;BME280;38812;50.942;3.644;2022-12-05T14:04:01;101874.34;;;3.90;100.00
52949;BME280;38812;50.942;3.644;2022-12-05T14:09:03;101872.50;;;3.86;100.00
52949;BME280;38812;50.942;3.644;2022-12-05T14:11:29;101869.88;;;3.84;100.00
52949;BME280;38812;50.942;3.644;2022-12-05T14:13:54;101871.66;;;3.87;100.00
52949;BME280;38812;50.942;3.644;2022-12-05T14:18:54;101872.56;;;3.89;100.00
52949;BME280;38812;50.942;3.644;2022-12-05T14:21:39;101872.63;;;3.92;100.00
52949;BME280;38812;50.942;3.644;2022-12-05T14:24:17;101865.53;;;3.85;100.00
52949;BME280;38812;50.942;3.644;2022-12-05T14:32:31;101870.81;;;3.88;100.00
52949;BME280;38812;50.942;3.644;2022-12-05T14:35:26;101867.31;;;3.86;100.00
52949;BME280;38812;50.942;3.644;2022-12-05T14:40:38;101865.53;;;3.85;100.00
52949;BME280;38812;50.942;3.644;2022-12-05T14:50:46;101857.81;;;3.88;100.00
52949;BME280;38812;50.942;3.644;2022-12-05T14:58:42;101856.13;;;3.90;100.00
52949;BME280;38812;50.942;3.644;2022-12-05T15:01:31;101860.41;;;3.88;100.00
52949;BME280;38812;50.942;3.644;2022-12-05T15:04:18;101851.78;;;3.89;100.00
52949;BME280;38812;50.942;3.644;2022-12-05T15:06:53;101853.47;;;3.87;100.00